createdAt,value
2022-11-14T00:00:25.575Z,11.60
2022-11-14T00:05:46.701Z,11.65
2022-11-14T00:11:11.040Z,11.60
2022-11-14T00:16:31.392Z,10.50
2022-11-14T00:21:53.247Z,11.32
2022-11-14T00:27:13.715Z,11.63
2022-11-14T00:32:34.305Z,11.82
2022-11-14T00:37:54.902Z,12.55
2022-11-14T00:43:34.509Z,11.57
2022-11-14T00:49:24.878Z,11.65
2022-11-14T00:54:47.022Z,12.55
2022-11-14T01:01:04.922Z,12.13
2022-11-14T01:06:26.549Z,12.75
2022-11-14T01:11:47.018Z,13.40
2022-11-14T01:17:08.049Z,13.90
2022-11-14T01:22:29.896Z,13.05
2022-11-14T01:28:08.694Z,13.68
2022-11-14T01:33:44.923Z,13.95
2022-11-14T01:39:05.028Z,14.20
2022-11-14T01:50:16.452Z,14.27
2022-11-14T01:55:38.107Z,15.90
2022-11-14T02:00:59.414Z,16.33
2022-11-14T02:06:22.619Z,15.05
2022-11-14T02:11:46.326Z,15.82
2022-11-14T02:17:28.403Z,16.15
2022-11-14T02:22:47.014Z,16.98
2022-11-14T02:28:09.549Z,17.80
2022-11-14T02:33:29.845Z,17.25
2022-11-14T02:38:50.286Z,18.80
2022-11-14T02:49:30.442Z,17.92
2022-11-14T02:54:54.458Z,18.13
2022-11-14T03:00:15.585Z,19.85
2022-11-14T03:05:35.784Z,20.48
2022-11-14T03:10:56.136Z,19.77
2022-11-14T03:16:16.420Z,20.80
2022-11-14T03:21:36.821Z,20.20
2022-11-14T03:26:57.361Z,21.35
2022-11-14T03:32:18.063Z,21.48
2022-11-14T03:37:38.186Z,20.40
2022-11-14T03:42:58.284Z,21.80
2022-11-14T03:48:20.706Z,23.05
2022-11-14T03:53:41.138Z,21.85
2022-11-14T03:59:01.785Z,23.88
2022-11-14T04:04:22.249Z,22.67
2022-11-14T04:09:44.926Z,22.10
2022-11-14T04:15:05.714Z,22.30
2022-11-14T04:20:26.014Z,22.50
2022-11-14T04:31:06.931Z,23.50
